Time;durP1;ratioP1;P1;durP2;ratioP2;P2;SDS_P1;SDS_P2;PMS_P1;PMS_P2;Temp;Humidity;BMP_temperature;BMP_pressure;BME280_temperature;BME280_humidity;BME280_pressure;Samples;Min_cycle;Max_cycle;Signal;HPM_P1;HPM_P2
2022/12/08 00:01:59;;;;;;;9.00;7.68;;;2.50;1.00;;;;;;5093462;28;20217;-81
2022/12/08 00:04:27;;;;;;;9.25;8.15;;;2.50;1.00;;;;;;5093863;28;20208;-81
2022/12/08 00:09:43;;;;;;;11.95;8.40;;;2.40;3.00;;;;;;5096642;27;20243;-81
2022/12/08 00:12:14;;;;;;;22.92;14.38;;;2.30;99.90;;;;;;5094353;28;20218;-81
2022/12/08 00:14:43;;;;;;;15.27;12.88;;;2.30;1.00;;;;;;5092378;28;20202;-79
2022/12/08 00:17:14;;;;;;;13.13;10.27;;;2.30;99.90;;;;;;5089835;28;20317;-80
2022/12/08 00:19:43;;;;;;;11.95;9.27;;;2.30;3.40;;;;;;5099332;28;20752;-80
2022/12/08 00:22:13;;;;;;;13.50;10.35;;;2.20;99.90;;;;;;5089178;28;20226;-80
2022/12/08 00:24:44;;;;;;;11.80;10.00;;;2.30;99.90;;;;;;5093041;28;20326;-79
2022/12/08 00:27:15;;;;;;;11.40;9.40;;;2.20;73.10;;;;;;5089978;28;20395;-78
2022/12/08 00:29:43;;;;;;;10.32;8.90;;;2.10;1.00;;;;;;5087045;28;20283;-79
2022/12/08 00:32:12;;;;;;;11.45;8.50;;;2.20;81.60;;;;;;5094036;28;20220;-79
2022/12/08 00:34:40;;;;;;;9.15;8.35;;;2.10;1.00;;;;;;5086221;28;20206;-79
2022/12/08 00:37:08;;;;;;;10.43;9.18;;;2.20;99.90;;;;;;5090516;28;20279;-79
2022/12/08 00:39:37;;;;;;;9.60;8.70;;;2.10;1.00;;;;;;5090663;28;20213;-79
2022/12/08 00:42:12;;;;;;;9.20;8.40;;;2.10;1.00;;;;;;5085657;28;20336;-80
2022/12/08 00:44:41;;;;;;;10.27;9.15;;;2.10;99.60;;;;;;5088891;28;20585;-79
2022/12/08 00:47:10;;;;;;;9.50;8.45;;;2.00;99.90;;;;;;5095454;28;20296;-77
2022/12/08 00:49:38;;;;;;;10.07;8.98;;;2.00;99.90;;;;;;5092592;28;20206;-78
2022/12/08 00:52:06;;;;;;;10.65;9.00;;;2.00;1.00;;;;;;5088139;28;20222;-77
2022/12/08 00:54:35;;;;;;;14.93;9.65;;;2.10;26.10;;;;;;5091186;28;20282;-78
2022/12/08 00:57:03;;;;;;;11.70;9.27;;;2.00;31.00;;;;;;5092785;28;20315;-78
2022/12/08 00:59:32;;;;;;;12.55;8.50;;;2.10;1.00;;;;;;5091819;28;20212;-79
2022/12/08 01:02:00;;;;;;;9.82;8.15;;;2.00;99.90;;;;;;5084097;28;20246;-78
2022/12/08 01:04:29;;;;;;;10.27;8.90;;;2.00;99.90;;;;;;5089314;28;20588;-78
2022/12/08 01:06:57;;;;;;;8.60;7.82;;;2.00;99.90;;;;;;5094474;28;20240;-80
2022/12/08 01:09:25;;;;;;;9.15;7.78;;;1.90;99.90;;;;;;5096861;28;20277;-80
2022/12/08 01:11:53;;;;;;;8.15;7.38;;;1.90;1.00;;;;;;5097699;28;20228;-79
2022/12/08 01:14:22;;;;;;;8.60;7.70;;;2.00;99.90;;;;;;5095132;28;20564;-79
2022/12/08 01:16:52;;;;;;;11.00;8.23;;;1.90;99.90;;;;;;5099647;28;20301;-79
2022/12/08 01:19:20;;;;;;;9.50;7.57;;;1.80;99.90;;;;;;5095300;27;20211;-79
2022/12/08 01:21:48;;;;;;;13.25;8.90;;;1.80;1.00;;;;;;5096962;28;20222;-80
2022/12/08 01:24:19;;;;;;;10.40;9.13;;;1.80;1.00;;;;;;5095457;27;20203;-80
2022/12/08 01:26:48;;;;;;;8.23;7.20;;;1.80;99.90;;;;;;5100856;28;20819;-79
2022/12/08 01:29:16;;;;;;;11.23;8.35;;;1.80;99.90;;;;;;5097839;28;20210;-79
2022/12/08 01:31:45;;;;;;;9.00;7.75;;;1.80;1.00;;;;;;5093031;28;20217;-79
2022/12/08 01:34:14;;;;;;;11.93;7.53;;;1.80;1.00;;;;;;5095088;27;20914;-79
2022/12/08 01:36:43;;;;;;;9.43;8.50;;;1.80;52.80;;;;;;5099974;28;20189;-79
2022/12/08 01:39:15;;;;;;;12.02;8.00;;;1.70;99.90;;;;;;5096158;28;20206;-79
2022/12/08 01:41:45;;;;;;;8.60;6.90;;;1.60;1.00;;;;;;5097649;28;20893;-80
2022/12/08 01:44:52;;;;;;;9.77;7.70;;;1.60;1.00;;;;;;5095983;27;20223;-81
2022/12/08 01:47:22;;;;;;;9.25;7.70;;;1.70;1.00;;;;;;5096023;28;20679;-79
2022/12/08 01:49:52;;;;;;;8.40;7.60;;;1.70;99.90;;;;;;5098136;27;20666;-78
2022/12/08 01:52:25;;;;;;;10.20;7.18;;;1.70;1.00;;;;;;5100251;28;20255;-80
2022/12/08 01:54:57;;;;;;;9.90;6.97;;;1.60;99.90;;;;;;5099561;27;20201;-79
2022/12/08 01:57:30;;;;;;;9.02;7.70;;;1.60;99.90;;;;;;5099044;27;20204;-78
2022/12/08 02:00:02;;;;;;;7.68;6.97;;;1.50;1.00;;;;;;5095269;27;20215;-81
2022/12/08 02:02:36;;;;;;;7.90;6.70;;;1.60;1.00;;;;;;5099609;27;20306;-79
2022/12/08 02:05:07;;;;;;;8.88;7.68;;;1.60;1.00;;;;;;5093163;28;20207;-79
2022/12/08 02:07:36;;;;;;;7.30;6.57;;;1.60;99.90;;;;;;5096504;28;20214;-80
2022/12/08 02:10:05;;;;;;;10.65;7.57;;;1.60;99.90;;;;;;5103404;27;20246;-80
2022/12/08 02:12:34;;;;;;;10.18;7.70;;;1.60;1.00;;;;;;5095868;28;20193;-79
2022/12/08 02:15:02;;;;;;;11.65;8.68;;;1.50;1.00;;;;;;5089601;28;20197;-81
2022/12/08 02:17:49;;;;;;;12.02;9.20;;;1.60;99.90;;;;;;5098933;27;20200;-79
2022/12/08 02:20:31;;;;;;;11.35;10.02;;;1.60;1.00;;;;;;5096895;28;20216;-80
2022/12/08 02:23:06;;;;;;;11.75;9.40;;;1.60;1.00;;;;;;5095395;28;20229;-80
2022/12/08 02:25:42;;;;;;;10.70;8.57;;;1.60;99.90;;;;;;5097407;27;20230;-78
2022/12/08 02:28:42;;;;;;;10.80;9.48;;;1.60;99.90;;;;;;5092438;27;20278;-79
2022/12/08 02:31:19;;;;;;;10.00;8.38;;;1.50;99.90;;;;;;5095016;28;20211;-80
2022/12/08 02:34:12;;;;;;;8.13;7.32;;;1.40;1.00;;;;;;5097023;27;20189;-80
2022/12/08 02:36:49;;;;;;;9.57;8.20;;;1.30;1.00;;;;;;5098198;28;20193;-79
2022/12/08 02:39:27;;;;;;;10.32;8.40;;;1.30;99.90;;;;;;5093365;28;20194;-80
2022/12/08 02:42:04;;;;;;;7.88;7.15;;;1.40;25.80;;;;;;5100611;27;20221;-78
2022/12/08 02:44:39;;;;;;;11.15;7.80;;;1.40;1.00;;;;;;5098175;27;20289;-79
2022/12/08 02:47:11;;;;;;;8.43;7.63;;;1.40;99.90;;;;;;5097706;28;20196;-80
2022/12/08 02:49:41;;;;;;;8.70;7.80;;;1.40;33.30;;;;;;5095150;28;20304;-80
2022/12/08 02:52:41;;;;;;;10.02;7.82;;;1.40;99.90;;;;;;5097459;28;20224;-80
2022/12/08 02:55:16;;;;;;;7.97;7.18;;;1.40;99.90;;;;;;5098319;28;20291;-79
2022/12/08 02:58:00;;;;;;;10.25;7.43;;;1.40;99.90;;;;;;5096784;28;20212;-81
2022/12/08 03:00:35;;;;;;;8.40;7.40;;;1.40;99.90;;;;;;5095972;27;20235;-79
2022/12/08 03:03:09;;;;;;;11.75;7.35;;;1.50;99.90;;;;;;5095840;27;20242;-80
2022/12/08 03:05:54;;;;;;;7.93;7.13;;;1.40;1.00;;;;;;5094966;28;20199;-81
2022/12/08 03:08:28;;;;;;;9.75;8.60;;;1.30;1.00;;;;;;5094693;28;20224;-80
2022/12/08 03:11:03;;;;;;;8.75;7.85;;;1.30;99.90;;;;;;5095328;28;20209;-79
2022/12/08 03:13:35;;;;;;;10.30;8.35;;;1.40;1.00;;;;;;5093425;28;20191;-79
2022/12/08 03:16:07;;;;;;;9.45;8.02;;;1.30;1.00;;;;;;5092979;27;20189;-79
2022/12/08 03:18:39;;;;;;;8.02;7.20;;;1.20;25.50;;;;;;5088950;28;20547;-80
2022/12/08 03:21:14;;;;;;;8.23;7.38;;;1.30;99.90;;;;;;5095992;28;20262;-79
2022/12/08 03:23:46;;;;;;;8.95;8.07;;;1.30;1.00;;;;;;5095336;27;20270;-80
2022/12/08 03:26:22;;;;;;;7.82;6.85;;;1.40;25.70;;;;;;5091451;28;20275;-78
2022/12/08 03:28:51;;;;;;;9.05;6.85;;;1.30;1.00;;;;;;5093983;27;20207;-80
2022/12/08 03:31:21;;;;;;;6.95;6.35;;;1.30;25.30;;;;;;5100048;28;20220;-77
2022/12/08 03:33:54;;;;;;;6.90;6.18;;;1.20;1.00;;;;;;5098144;27;20765;-81
2022/12/08 03:36:24;;;;;;;7.75;6.93;;;1.30;1.00;;;;;;5089384;28;20188;-79
2022/12/08 03:38:53;;;;;;;7.20;6.50;;;1.10;1.00;;;;;;5089156;28;20622;-78
2022/12/08 03:41:22;;;;;;;7.95;7.15;;;1.20;1.00;;;;;;5092084;27;20240;-77
2022/12/08 03:43:54;;;;;;;8.70;6.63;;;1.10;99.90;;;;;;5088233;28;20216;-78
2022/12/08 03:46:24;;;;;;;8.95;7.25;;;1.00;99.90;;;;;;5092048;28;20197;-79
2022/12/08 03:48:51;;;;;;;9.18;6.50;;;1.00;99.90;;;;;;5087482;28;20199;-78
2022/12/08 03:51:19;;;;;;;6.70;5.95;;;1.00;58.80;;;;;;5089519;28;20210;-79
2022/12/08 03:53:49;;;;;;;9.20;7.55;;;1.00;43.40;;;;;;5096098;28;20199;-78
2022/12/08 03:56:23;;;;;;;7.40;6.68;;;0.90;1.00;;;;;;5094140;28;20202;-77
2022/12/08 03:58:52;;;;;;;8.65;6.35;;;0.90;1.00;;;;;;5090908;28;20262;-79
2022/12/08 04:01:20;;;;;;;7.63;6.63;;;0.90;99.90;;;;;;5096811;27;20215;-78
2022/12/08 04:03:48;;;;;;;7.70;6.80;;;0.90;1.00;;;;;;5091990;28;20207;-79
2022/12/08 04:06:17;;;;;;;9.38;7.13;;;0.90;99.90;;;;;;5089047;28;20300;-79
2022/12/08 04:08:45;;;;;;;9.23;6.85;;;0.90;1.00;;;;;;5090796;28;20887;-78
2022/12/08 04:11:15;;;;;;;9.60;6.55;;;0.90;99.90;;;;;;5101602;28;20216;-78
2022/12/08 04:13:43;;;;;;;7.50;6.90;;;1.00;1.00;;;;;;5095893;27;20193;-78
2022/12/08 04:16:16;;;;;;;6.97;5.95;;;1.10;99.90;;;;;;5096197;28;20197;-79
2022/12/08 04:18:45;;;;;;;6.75;6.05;;;1.10;1.00;;;;;;5094787;27;20224;-78
2022/12/08 04:21:14;;;;;;;7.25;6.22;;;1.20;99.90;;;;;;5088113;28;20220;-78
2022/12/08 04:23:42;;;;;;;8.30;6.20;;;1.30;1.00;;;;;;5097782;27;20205;-79
2022/12/08 04:26:12;;;;;;;8.63;7.03;;;1.20;99.90;;;;;;5096111;27;20215;-78
2022/12/08 04:28:42;;;;;;;6.95;5.88;;;1.20;99.90;;;;;;5094549;28;20202;-79
2022/12/08 04:31:11;;;;;;;6.82;6.22;;;1.10;99.90;;;;;;5096156;28;20261;-79
2022/12/08 04:33:39;;;;;;;6.60;5.93;;;1.10;99.90;;;;;;5097544;28;20280;-79
2022/12/08 04:36:08;;;;;;;7.75;6.18;;;1.10;99.90;;;;;;5091379;28;20200;-80
2022/12/08 04:38:36;;;;;;;7.32;6.00;;;1.10;1.00;;;;;;5095219;28;20209;-79
2022/12/08 04:41:05;;;;;;;8.50;5.65;;;1.10;99.90;;;;;;5095197;27;20597;-80
2022/12/08 04:43:33;;;;;;;7.60;5.60;;;1.00;1.00;;;;;;5091488;28;20205;-80
2022/12/08 04:46:06;;;;;;;6.40;5.78;;;0.90;1.00;;;;;;5098261;28;20289;-80
2022/12/08 04:48:36;;;;;;;10.25;6.57;;;0.90;1.00;;;;;;5096000;28;20195;-80
2022/12/08 04:51:05;;;;;;;8.95;6.88;;;0.80;78.60;;;;;;5091552;28;20230;-80
2022/12/08 04:53:33;;;;;;;8.23;6.00;;;0.80;99.90;;;;;;5095139;28;20195;-80
2022/12/08 04:56:02;;;;;;;8.98;6.15;;;0.70;1.00;;;;;;5093460;28;20207;-80
2022/12/08 04:58:30;;;;;;;8.30;5.95;;;0.70;22.10;;;;;;5089926;28;20206;-80
2022/12/08 05:00:58;;;;;;;6.32;5.30;;;0.60;99.90;;;;;;5089737;28;20565;-78
2022/12/08 05:03:28;;;;;;;8.07;6.50;;;0.60;99.90;;;;;;5086999;28;20216;-80
2022/12/08 05:05:56;;;;;;;6.63;6.03;;;0.70;1.00;;;;;;5087134;28;20195;-78
2022/12/08 05:08:24;;;;;;;7.97;6.60;;;0.70;99.90;;;;;;5092266;28;20913;-79
2022/12/08 05:10:52;;;;;;;6.75;6.03;;;0.70;99.90;;;;;;5100644;28;20276;-78
2022/12/08 05:13:20;;;;;;;5.65;5.15;;;0.60;99.90;;;;;;5096710;28;20208;-80
2022/12/08 05:15:49;;;;;;;6.13;5.50;;;0.50;1.00;;;;;;5094081;28;20196;-78
2022/12/08 05:18:17;;;;;;;5.78;5.15;;;0.50;99.90;;;;;;5092046;28;20291;-79
2022/12/08 05:20:47;;;;;;;7.75;6.30;;;0.50;18.40;;;;;;5091970;28;20223;-78
2022/12/08 05:23:15;;;;;;;6.45;5.82;;;0.40;98.90;;;;;;5090263;28;20616;-79
2022/12/08 05:25:43;;;;;;;6.03;5.43;;;0.50;99.90;;;;;;5093924;28;20290;-79
2022/12/08 05:28:11;;;;;;;7.13;5.60;;;0.40;1.00;;;;;;5097438;28;20267;-79
2022/12/08 05:30:59;;;;;;;8.02;5.50;;;0.40;99.90;;;;;;5087143;28;20223;-80
2022/12/08 05:33:27;;;;;;;6.15;5.63;;;0.40;99.90;;;;;;5091027;28;20229;-79
2022/12/08 05:35:57;;;;;;;6.63;5.15;;;0.40;99.90;;;;;;5088166;28;20238;-79
2022/12/08 05:38:25;;;;;;;6.50;6.00;;;0.50;99.90;;;;;;5093209;28;20205;-79
2022/12/08 05:40:53;;;;;;;6.63;5.95;;;0.50;99.90;;;;;;5090455;28;20730;-79
2022/12/08 05:43:22;;;;;;;8.00;7.15;;;0.50;99.90;;;;;;5089260;28;20227;-79
2022/12/08 05:45:50;;;;;;;8.50;6.75;;;0.50;99.90;;;;;;5089153;28;20204;-80
2022/12/08 05:48:18;;;;;;;7.68;6.30;;;0.60;18.00;;;;;;5091483;28;20203;-80
2022/12/08 05:50:47;;;;;;;13.00;7.90;;;0.60;99.90;;;;;;5094731;28;20220;-79
2022/12/08 05:53:17;;;;;;;7.05;6.35;;;0.60;5.10;;;;;;5088283;28;20207;-80
2022/12/08 05:55:46;;;;;;;5.95;5.40;;;0.50;99.90;;;;;;5091335;28;20299;-79
2022/12/08 05:58:16;;;;;;;8.45;7.40;;;0.50;31.20;;;;;;5090677;28;20211;-80
2022/12/08 06:00:45;;;;;;;6.80;6.10;;;0.40;1.00;;;;;;5096427;27;20212;-81
2022/12/08 06:03:14;;;;;;;6.32;5.70;;;0.30;99.90;;;;;;5098958;27;20559;-80
2022/12/08 06:05:44;;;;;;;8.07;6.55;;;0.50;99.90;;;;;;5100086;28;20269;-78
2022/12/08 06:08:13;;;;;;;7.07;6.38;;;0.40;1.00;;;;;;5096707;28;20220;-77
2022/12/08 06:10:44;;;;;;;6.80;6.05;;;0.40;99.90;;;;;;5091470;28;20223;-79
2022/12/08 06:13:12;;;;;;;9.35;6.22;;;0.30;1.00;;;;;;5093707;27;20204;-79
2022/12/08 06:15:41;;;;;;;6.88;5.82;;;0.30;99.90;;;;;;5094142;28;20196;-79
2022/12/08 06:18:10;;;;;;;8.80;5.90;;;0.30;99.90;;;;;;5090274;28;20223;-78
2022/12/08 06:20:38;;;;;;;7.85;5.53;;;0.30;1.00;;;;;;5085670;28;20234;-77
2022/12/08 06:23:07;;;;;;;8.35;6.18;;;0.20;99.90;;;;;;5089017;28;20195;-79
2022/12/08 06:25:35;;;;;;;6.35;5.75;;;0.20;1.00;;;;;;5095211;28;20212;-78
2022/12/08 06:28:06;;;;;;;6.20;5.45;;;0.30;99.90;;;;;;5087129;28;20195;-80
2022/12/08 06:30:35;;;;;;;6.57;5.97;;;0.30;1.00;;;;;;5088621;28;20234;-79
2022/12/08 06:33:03;;;;;;;7.30;5.90;;;0.30;99.90;;;;;;5092954;28;23297;-79
2022/12/08 06:35:31;;;;;;;6.30;5.38;;;0.40;99.90;;;;;;5093523;27;20203;-79
2022/12/08 06:38:00;;;;;;;5.80;5.15;;;0.40;97.80;;;;;;5094517;27;20200;-79
2022/12/08 06:40:28;;;;;;;8.15;5.80;;;0.40;99.90;;;;;;5095796;27;20327;-79
2022/12/08 06:42:56;;;;;;;6.63;4.93;;;0.40;1.00;;;;;;5089747;28;20215;-80
2022/12/08 06:45:26;;;;;;;5.70;4.75;;;0.50;99.90;;;;;;5090959;27;20243;-78
2022/12/08 06:47:54;;;;;;;6.78;5.18;;;0.50;99.90;;;;;;5092364;28;20199;-79
2022/12/08 06:50:22;;;;;;;6.63;5.57;;;0.40;99.90;;;;;;5094161;28;20275;-78
2022/12/08 06:52:50;;;;;;;6.13;5.55;;;0.50;99.90;;;;;;5087875;27;20200;-78
2022/12/08 06:55:32;;;;;;;6.00;5.07;;;0.60;1.00;;;;;;5093422;27;20190;-79
2022/12/08 06:58:20;;;;;;;6.15;4.95;;;0.60;99.90;;;;;;5097212;27;20299;-79
2022/12/08 07:00:50;;;;;;;6.68;5.97;;;0.60;1.00;;;;;;5093497;28;20220;-79
2022/12/08 07:03:18;;;;;;;6.40;5.80;;;0.50;1.00;;;;;;5093762;28;20665;-79
2022/12/08 07:05:47;;;;;;;8.23;5.38;;;0.50;99.90;;;;;;5098149;27;20223;-79
2022/12/08 07:08:15;;;;;;;7.13;5.40;;;0.50;21.30;;;;;;5095179;27;20219;-79
2022/12/08 07:10:44;;;;;;;6.72;5.30;;;0.40;1.00;;;;;;5093749;28;20277;-79
2022/12/08 07:13:12;;;;;;;5.95;5.00;;;0.40;1.00;;;;;;5095801;28;20214;-79
2022/12/08 07:15:40;;;;;;;16.30;10.30;;;0.40;1.00;;;;;;5090383;27;20564;-79
2022/12/08 07:18:10;;;;;;;13.40;11.10;;;0.40;1.00;;;;;;5093443;28;20205;-78
2022/12/08 07:20:38;;;;;;;8.40;6.65;;;0.50;1.00;;;;;;5094232;27;20226;-78
2022/12/08 07:23:06;;;;;;;8.57;7.20;;;0.50;99.90;;;;;;5095204;27;20204;-78
2022/12/08 07:25:35;;;;;;;8.02;5.45;;;0.50;99.90;;;;;;5091683;28;20218;-78
2022/12/08 07:28:08;;;;;;;10.30;6.60;;;0.40;8.30;;;;;;5087187;28;20195;-78
2022/12/08 07:30:36;;;;;;;5.82;5.25;;;0.30;1.00;;;;;;5091102;28;20227;-78
2022/12/08 07:33:05;;;;;;;6.13;5.63;;;0.30;99.90;;;;;;5088825;28;22498;-79
2022/12/08 07:35:35;;;;;;;9.30;5.57;;;0.30;1.00;;;;;;5086682;28;20372;-78
2022/12/08 07:38:03;;;;;;;5.68;5.18;;;0.30;1.00;;;;;;5091555;27;20209;-77
2022/12/08 07:40:32;;;;;;;5.03;4.60;;;0.30;1.00;;;;;;5088004;28;20211;-77
2022/12/08 07:43:00;;;;;;;6.00;5.30;;;0.50;1.00;;;;;;5089529;28;20214;-78
2022/12/08 07:45:28;;;;;;;5.57;4.72;;;0.60;1.00;;;;;;5090496;28;20269;-78
2022/12/08 07:47:59;;;;;;;4.82;4.43;;;0.70;1.00;;;;;;5087473;28;20199;-79
2022/12/08 07:50:28;;;;;;;5.80;4.75;;;0.70;99.90;;;;;;5089031;28;20338;-78
2022/12/08 07:52:57;;;;;;;6.95;6.25;;;0.60;99.90;;;;;;5085792;28;20219;-79
2022/12/08 07:55:26;;;;;;;7.38;5.72;;;0.70;99.90;;;;;;5092344;27;20192;-79
2022/12/08 07:57:54;;;;;;;6.60;6.00;;;1.00;1.00;;;;;;5094524;28;20199;-78
2022/12/08 08:00:23;;;;;;;7.43;4.90;;;1.00;1.00;;;;;;5094105;28;20277;-78
2022/12/08 08:02:52;;;;;;;4.93;4.50;;;1.10;99.90;;;;;;5096113;28;20680;-78
2022/12/08 08:05:20;;;;;;;6.03;4.47;;;1.10;1.00;;;;;;5089622;28;20207;-78
2022/12/08 08:07:48;;;;;;;6.43;5.07;;;1.10;80.70;;;;;;5094158;27;20294;-79
2022/12/08 08:10:18;;;;;;;6.28;4.95;;;1.30;1.00;;;;;;5100761;27;20204;-79
2022/12/08 08:12:46;;;;;;;5.68;5.10;;;1.60;1.00;;;;;;5097875;28;20692;-78
2022/12/08 08:15:16;;;;;;;7.50;5.15;;;1.60;99.90;;;;;;5094530;28;20284;-79
2022/12/08 08:17:44;;;;;;;8.45;6.20;;;1.60;1.00;;;;;;5091947;28;20188;-79
2022/12/08 08:20:13;;;;;;;6.32;5.68;;;1.70;99.90;;;;;;5090224;28;20204;-78
2022/12/08 08:22:41;;;;;;;5.55;5.05;;;1.90;70.90;;;;;;5091348;28;20200;-79
2022/12/08 08:25:10;;;;;;;6.55;5.85;;;1.90;1.00;;;;;;5087764;28;20242;-78
2022/12/08 08:27:40;;;;;;;5.80;5.20;;;1.90;1.00;;;;;;5088571;28;20235;-79
2022/12/08 08:30:10;;;;;;;4.88;4.47;;;2.00;1.00;;;;;;5086475;28;20208;-79
2022/12/08 08:32:47;;;;;;;5.47;4.97;;;2.10;1.00;;;;;;5080447;28;20240;-79
2022/12/08 08:35:18;;;;;;;6.35;4.82;;;2.20;99.90;;;;;;5088886;28;20251;-79
2022/12/08 08:37:47;;;;;;;5.50;5.00;;;2.10;99.90;;;;;;5087204;28;20201;-79
2022/12/08 08:40:17;;;;;;;5.07;4.55;;;2.20;93.20;;;;;;5088622;28;20267;-80
2022/12/08 08:42:47;;;;;;;4.50;4.10;;;2.30;99.90;;;;;;5087421;28;20202;-78
2022/12/08 08:45:16;;;;;;;5.13;4.65;;;2.20;99.90;;;;;;5086123;28;20693;-81
2022/12/08 08:47:45;;;;;;;4.45;4.15;;;2.30;99.90;;;;;;5087261;28;20198;-80
2022/12/08 08:50:13;;;;;;;4.85;4.35;;;2.40;94.20;;;;;;5085054;28;22642;-78
2022/12/08 08:52:41;;;;;;;6.88;5.25;;;2.40;99.90;;;;;;5087933;28;20201;-79
2022/12/08 08:55:10;;;;;;;5.80;4.88;;;2.50;90.00;;;;;;5093168;28;20202;-81
2022/12/08 08:57:38;;;;;;;4.65;4.25;;;2.40;99.90;;;;;;5085896;28;20271;-79
2022/12/08 09:00:09;;;;;;;5.30;4.90;;;2.60;99.90;;;;;;5092524;28;20539;-80
2022/12/08 09:02:38;;;;;;;4.88;4.38;;;2.70;99.90;;;;;;5094639;28;20201;-79
2022/12/08 09:05:07;;;;;;;5.10;4.70;;;2.60;99.90;;;;;;5087841;28;20258;-79
2022/12/08 09:07:35;;;;;;;4.82;4.43;;;2.60;78.10;;;;;;5088896;28;20224;-79
2022/12/08 09:10:05;;;;;;;5.55;4.97;;;2.50;1.00;;;;;;5086921;28;20224;-80
2022/12/08 09:12:34;;;;;;;4.47;4.07;;;2.70;1.00;;;;;;5087861;28;20201;-80
2022/12/08 09:15:03;;;;;;;5.07;4.45;;;2.60;1.00;;;;;;5082456;28;20196;-77
2022/12/08 09:17:33;;;;;;;5.63;4.88;;;2.70;1.00;;;;;;5088531;28;21837;-78
2022/12/08 09:20:01;;;;;;;5.82;5.32;;;2.70;43.70;;;;;;5092187;28;20611;-79
2022/12/08 09:22:30;;;;;;;4.80;4.30;;;2.90;99.90;;;;;;5088257;28;20205;-80
2022/12/08 09:24:58;;;;;;;6.40;4.07;;;3.10;1.00;;;;;;5094119;28;20210;-80
2022/12/08 09:27:27;;;;;;;4.15;3.80;;;3.20;1.00;;;;;;5093457;28;20608;-78
2022/12/08 09:29:55;;;;;;;5.30;4.72;;;3.30;99.90;;;;;;5088484;28;20209;-79
2022/12/08 09:32:23;;;;;;;5.78;4.85;;;3.60;1.00;;;;;;5089859;28;20713;-78
2022/12/08 09:34:53;;;;;;;5.65;5.15;;;3.60;99.90;;;;;;5092064;28;20573;-79
2022/12/08 09:37:21;;;;;;;5.57;4.97;;;3.90;99.90;;;;;;5091592;28;20203;-78
2022/12/08 09:39:49;;;;;;;4.35;4.03;;;4.10;30.10;;;;;;5092677;28;20200;-79
2022/12/08 09:42:26;;;;;;;5.43;4.97;;;4.50;1.00;;;;;;5091725;28;20231;-78
2022/12/08 09:45:00;;;;;;;6.40;5.80;;;4.80;1.00;;;;;;5086970;28;20282;-80
2022/12/08 09:47:34;;;;;;;5.10;4.67;;;4.90;1.00;;;;;;5092196;28;20702;-79
2022/12/08 09:50:11;;;;;;;6.13;5.53;;;5.10;1.00;;;;;;5089096;28;20461;-79
2022/12/08 09:52:43;;;;;;;5.90;5.40;;;5.20;1.00;;;;;;5090655;28;20535;-79
2022/12/08 09:55:23;;;;;;;4.83;4.43;;;5.50;1.00;;;;;;5091709;28;20493;-79
2022/12/08 09:57:58;;;;;;;6.57;5.97;;;6.20;99.90;;;;;;5090549;28;20461;-79
2022/12/08 10:00:27;;;;;;;24.07;12.53;;;6.40;99.90;;;;;;5095712;28;20474;-78
2022/12/08 10:02:56;;;;;;;6.97;5.90;;;6.70;99.90;;;;;;5091034;28;20462;-78
2022/12/08 10:05:27;;;;;;;7.17;6.07;;;6.70;99.90;;;;;;5088769;28;20457;-80
2022/12/08 10:08:04;;;;;;;6.23;5.70;;;6.60;99.90;;;;;;5090809;28;20522;-79
2022/12/08 10:10:39;;;;;;;6.03;5.53;;;6.80;99.90;;;;;;5084355;28;20598;-79
2022/12/08 10:13:17;;;;;;;6.00;5.03;;;7.00;99.90;;;;;;5083926;28;20549;-78
2022/12/08 10:15:52;;;;;;;8.20;7.27;;;7.10;99.90;;;;;;5085417;28;20512;-78
2022/12/08 10:18:27;;;;;;;7.80;6.43;;;7.30;99.90;;;;;;5088222;27;20516;-79
2022/12/08 10:21:00;;;;;;;5.30;4.80;;;7.40;99.90;;;;;;5089216;28;20923;-78
2022/12/08 10:23:34;;;;;;;4.43;4.13;;;7.70;99.90;;;;;;5086726;28;20458;-78
2022/12/08 10:26:04;;;;;;;6.57;5.30;;;7.90;99.90;;;;;;5087308;28;20497;-77
2022/12/08 10:28:34;;;;;;;6.13;4.20;;;7.90;99.90;;;;;;5087579;27;20455;-78
2022/12/08 10:31:19;;;;;;;4.40;4.00;;;8.00;99.90;;;;;;5094913;27;20477;-78
2022/12/08 10:33:52;;;;;;;4.83;4.33;;;8.10;99.90;;;;;;5085988;27;21025;-79
2022/12/08 10:36:22;;;;;;;4.63;4.23;;;8.40;99.90;;;;;;5083821;28;20464;-78
2022/12/08 10:38:50;;;;;;;5.30;4.60;;;8.50;99.90;;;;;;5090763;27;20453;-78
2022/12/08 10:41:18;;;;;;;5.13;4.77;;;8.80;99.90;;;;;;5090243;28;20480;-78
2022/12/08 10:43:49;;;;;;;4.60;4.20;;;8.80;99.90;;;;;;5081755;28;20449;-77
2022/12/08 10:46:20;;;;;;;6.40;5.60;;;9.10;99.90;;;;;;5087412;28;20460;-77
2022/12/08 10:48:51;;;;;;;5.57;5.10;;;8.80;99.90;;;;;;5084466;28;21060;-84
2022/12/08 10:51:28;;;;;;;5.43;4.93;;;8.50;99.90;;;;;;5080774;28;21064;-78
2022/12/08 10:53:58;;;;;;;5.00;4.57;;;8.10;99.90;;;;;;5082932;28;21421;-77
2022/12/08 10:56:28;;;;;;;4.67;4.27;;;8.10;99.90;;;;;;5076758;28;21477;-79
2022/12/08 10:59:13;;;;;;;4.90;4.40;;;8.20;99.90;;;;;;5088571;28;20523;-80
2022/12/08 11:01:45;;;;;;;4.67;4.27;;;8.50;99.90;;;;;;5089265;28;20479;-78
2022/12/08 11:04:17;;;;;;;4.63;4.17;;;8.50;99.90;;;;;;5085245;28;20981;-79
2022/12/08 11:06:48;;;;;;;5.17;4.70;;;8.80;99.90;;;;;;5089112;27;20487;-79
2022/12/08 11:09:38;;;;;;;4.90;4.60;;;8.90;99.90;;;;;;5091524;27;20902;-79
2022/12/08 11:12:09;;;;;;;4.60;4.30;;;9.20;99.90;;;;;;5082626;28;20887;-79
2022/12/08 11:14:48;;;;;;;6.10;5.13;;;9.30;99.90;;;;;;5093746;28;23018;-78
2022/12/08 11:17:24;;;;;;;6.70;5.60;;;9.60;99.90;;;;;;5086173;28;20446;-78
2022/12/08 11:19:58;;;;;;;5.47;4.97;;;9.20;99.90;;;;;;5084993;27;20515;-79
2022/12/08 11:22:32;;;;;;;5.57;5.10;;;8.50;99.90;;;;;;5089092;27;20476;-79
2022/12/08 11:25:03;;;;;;;4.77;4.40;;;8.20;99.90;;;;;;5090162;27;20468;-80
2022/12/08 11:27:33;;;;;;;4.27;3.90;;;8.40;99.90;;;;;;5089097;27;20484;-79
2022/12/08 11:30:02;;;;;;;6.60;4.40;;;8.30;99.90;;;;;;5086662;27;22177;-79
2022/12/08 11:32:39;;;;;;;5.03;4.63;;;7.90;99.90;;;;;;5091573;28;20451;-79
2022/12/08 11:35:10;;;;;;;4.60;4.20;;;7.90;99.90;;;;;;5080602;27;20919;-78
2022/12/08 11:37:41;;;;;;;5.80;4.57;;;8.10;99.90;;;;;;5086660;27;20439;-79
2022/12/08 11:40:20;;;;;;;10.47;7.80;;;8.10;99.90;;;;;;5088077;28;20460;-78
2022/12/08 11:42:57;;;;;;;5.50;5.10;;;8.10;99.90;;;;;;5101805;27;20503;-79
2022/12/08 11:45:30;;;;;;;5.40;4.90;;;7.90;99.90;;;;;;5086217;28;21017;-78
2022/12/08 11:48:06;;;;;;;4.50;4.10;;;8.00;99.90;;;;;;5085429;28;21102;-80
2022/12/08 11:50:43;;;;;;;5.70;5.20;;;7.60;99.90;;;;;;5085072;28;20490;-78
2022/12/08 11:53:21;;;;;;;4.10;3.80;;;7.60;99.90;;;;;;5084712;28;20572;-78
2022/12/08 11:55:54;;;;;;;4.17;3.80;;;7.50;99.90;;;;;;5089669;28;20850;-79
2022/12/08 11:58:29;;;;;;;4.93;4.50;;;7.30;99.90;;;;;;5094760;28;20440;-79
2022/12/08 12:00:57;;;;;;;4.23;3.90;;;7.40;99.90;;;;;;5094847;28;20466;-79
2022/12/08 12:03:31;;;;;;;5.30;4.80;;;6.90;99.90;;;;;;5091947;28;20458;-79
2022/12/08 12:06:24;;;;;;;4.77;4.37;;;6.90;99.90;;;;;;5094230;28;20557;-79
2022/12/08 12:09:18;;;;;;;4.30;3.90;;;6.90;99.90;;;;;;5094234;28;20494;-79
2022/12/08 12:12:18;;;;;;;5.57;5.07;;;6.50;99.90;;;;;;5086349;28;21079;-77
2022/12/08 12:15:24;;;;;;;4.67;4.00;;;6.50;99.90;;;;;;5094268;28;20200;-77
2022/12/08 12:17:56;;;;;;;4.33;3.87;;;6.30;99.90;;;;;;5090552;27;20450;-79
2022/12/08 12:20:28;;;;;;;4.90;4.33;;;5.80;99.90;;;;;;5086973;28;20471;-78
2022/12/08 12:23:03;;;;;;;4.73;4.27;;;6.20;99.90;;;;;;5082915;28;20472;-78
2022/12/08 12:25:35;;;;;;;6.87;4.90;;;6.60;99.90;;;;;;5083560;27;20515;-79
2022/12/08 12:28:07;;;;;;;4.80;4.43;;;7.20;99.90;;;;;;5088361;28;20484;-79
2022/12/08 12:30:58;;;;;;;5.40;5.00;;;7.40;99.90;;;;;;5089122;28;20986;-79
2022/12/08 12:33:28;;;;;;;5.03;4.53;;;7.40;99.90;;;;;;5091821;27;20453;-79
2022/12/08 12:35:58;;;;;;;5.10;4.70;;;7.50;99.90;;;;;;5084271;28;20482;-79
2022/12/08 12:41:26;;;;;;;5.40;4.30;;;7.20;99.90;;;;;;5086316;28;20473;-79
2022/12/08 12:44:23;;;;;;;5.10;4.67;;;7.40;99.90;;;;;;5084019;28;20450;-77
2022/12/08 12:46:59;;;;;;;6.20;5.60;;;6.90;99.90;;;;;;5084071;28;20540;-80
2022/12/08 12:49:51;;;;;;;5.40;4.90;;;6.60;99.90;;;;;;5093392;28;20453;-78
2022/12/08 12:52:40;;;;;;;4.50;4.10;;;6.50;99.90;;;;;;5087482;28;20480;-77
2022/12/08 12:55:42;;;;;;;5.43;4.20;;;6.60;99.90;;;;;;5086198;28;21257;-77
2022/12/08 12:58:35;;;;;;;3.87;3.60;;;6.20;99.90;;;;;;5086731;28;20510;-77
2022/12/08 13:01:55;;;;;;;4.70;4.30;;;6.20;99.90;;;;;;5086556;28;21299;-78
2022/12/08 13:04:37;;;;;;;3.93;3.60;;;6.50;99.90;;;;;;5087718;28;20963;-77
2022/12/08 13:07:05;;;;;;;3.93;3.63;;;6.40;99.90;;;;;;5090491;28;20458;-78
2022/12/08 13:09:38;;;;;;;5.17;4.67;;;6.40;99.90;;;;;;5097811;28;20444;-77
2022/12/08 13:12:11;;;;;;;4.47;4.07;;;6.40;99.90;;;;;;5095437;27;20545;-78
2022/12/08 13:14:49;;;;;;;5.00;4.60;;;6.20;99.90;;;;;;5095157;27;20450;-77
2022/12/08 13:17:24;;;;;;;5.77;5.07;;;6.00;99.90;;;;;;5096183;28;20493;-76
2022/12/08 13:19:55;;;;;;;4.93;4.53;;;6.20;99.90;;;;;;5094932;28;20473;-77
2022/12/08 13:22:50;;;;;;;5.00;4.57;;;6.30;99.90;;;;;;5094533;28;20852;-78
2022/12/08 13:25:47;;;;;;;4.40;4.00;;;6.10;99.90;;;;;;5098532;27;20498;-78
2022/12/08 13:28:22;;;;;;;3.53;3.33;;;6.30;99.90;;;;;;5098019;27;20501;-77
2022/12/08 13:30:56;;;;;;;4.27;3.90;;;6.10;99.90;;;;;;5099121;27;20479;-78